Etusivu
METAR-TAF:

METAR-TAF

Lentoasemat :

Mountain Village, Alaska, Yhdysvallat

Leveyspiiri: 62-05-43N, Pituuspiiri: 163-40-55W, korkeus merenpinnasta: 103 m

Tämänhetkinen sää

Tämä raportti tehtiin 1 tunti ja 5 minuuttia sitten, kello 06.12 UTC
Tuuli 7 kn pohjoisen/luoteesta
Lämpötila 8°C
Kosteus 93%
Ilmanpaine 997 hPa
Näkyvyys: 16.1 km
Muutamia pilviä 900 ft:n korkeudessa
Hajanaisia pilviä 1400 ft:n korkeudessa
Pilvistä 5000 ft:n korkeudessa
heikkoa sadetta

METAR: PAMO 140612Z AUTO 34007KT 10SM -RA FEW009 SCT014 OVC050 08/07 A2945 RMK AO2 P0000

Aika: 23:17 (07:17 UTC)


TAF: puuttuu

Säähavainnot ja -ennusteet yli 4000 lentoasemalta (METAR- ja TAF-raportit).

Käytössä olevat sääasemat on merkitty karttaan keltaisilla ja punaisilla pisteillä.

Aseta hiiri pisteen päälle nähdäksesi sääaseman nimen.

Klikkaa sitten nähdäksesi säähavainnot ja -ennusteet.

Kartan vaihtaminen: klikkaa mustalla rastilla varustettuja vihreitä pisteitä, niin voit zoomata sisään; viivalla varustettua vihreää pistettä, niin voit zoomata ulos tai vihreitä nuolia, niin pääset viereisille kartoille.


METAR-TAF: